QTR25J OPKC-OTHH
Flight info
| Callsign | QTR25J |
|---|---|
| Flight time | N/A |
| Altitude | 36000 |
| Route | MELOM A454 VUSET N571 MENSA DCT EGTAG Q576 RORON M430 TOSNA |
| Aircraft | B77W/H-SDE1E2E3FGHIJ2J3J4J5M1RWXY/LB1D1 |
Departure
| Time | 2026-05-01 08:44 |
|---|---|
| Airport | Jinnah International Airport (OPKC) |
Arrival
| Time | N/A |
|---|---|
| Airport | Hamad International Airport (OTHH) |
| Time | Latitude | Longitude | Altitude | Speed | Heading |
|---|---|---|---|---|---|
| 2026-05-01 08:33 | 24.90418 | 67.16918 | 105 ft | 0 kts | 254° |
| 2026-05-01 08:35 | 24.90417 | 67.16915 | 105 ft | 1 kts | 254° |
| 2026-05-01 08:35 | 24.90415 | 67.16908 | 105 ft | 1 kts | 254° |
| 2026-05-01 08:36 | 24.90412 | 67.16898 | 104 ft | 2 kts | 254° |
| 2026-05-01 08:36 | 24.90408 | 67.16882 | 104 ft | 2 kts | 254° |
| 2026-05-01 08:36 | 24.90404 | 67.16863 | 106 ft | 3 kts | 254° |
| 2026-05-01 08:36 | 24.90398 | 67.16840 | 106 ft | 3 kts | 254° |
| 2026-05-01 08:37 | 24.90391 | 67.16813 | 107 ft | 4 kts | 254° |
| 2026-05-01 08:37 | 24.90383 | 67.16781 | 108 ft | 5 kts | 255° |
| 2026-05-01 08:37 | 24.90381 | 67.16747 | 109 ft | 5 kts | 276° |
| 2026-05-01 08:37 | 24.90397 | 67.16716 | 108 ft | 5 kts | 316° |
| 2026-05-01 08:38 | 24.90427 | 67.16702 | 106 ft | 5 kts | 347° |
| 2026-05-01 08:38 | 24.90460 | 67.16701 | 106 ft | 5 kts | 9° |
| 2026-05-01 08:38 | 24.90481 | 67.16728 | 107 ft | 5 kts | 68° |
| 2026-05-01 08:38 | 24.90493 | 67.16767 | 107 ft | 6 kts | 71° |
| 2026-05-01 08:39 | 24.90501 | 67.16794 | 107 ft | 6 kts | 74° |
| 2026-05-01 08:39 | 24.90513 | 67.16841 | 107 ft | 7 kts | 74° |
| 2026-05-01 08:39 | 24.90526 | 67.16892 | 107 ft | 7 kts | 74° |
| 2026-05-01 08:39 | 24.90541 | 67.16949 | 107 ft | 8 kts | 74° |
| 2026-05-01 08:40 | 24.90572 | 67.17074 | 107 ft | 9 kts | 75° |
| 2026-05-01 08:40 | 24.90588 | 67.17142 | 107 ft | 9 kts | 75° |
| 2026-05-01 08:40 | 24.90605 | 67.17214 | 107 ft | 10 kts | 75° |
| 2026-05-01 08:41 | 24.90624 | 67.17291 | 107 ft | 11 kts | 75° |
| 2026-05-01 08:41 | 24.90649 | 67.17371 | 107 ft | 11 kts | 58° |
| 2026-05-01 08:41 | 24.90703 | 67.17436 | 107 ft | 12 kts | 39° |
| 2026-05-01 08:41 | 24.90771 | 67.17481 | 109 ft | 12 kts | 21° |
| 2026-05-01 08:42 | 24.90848 | 67.17487 | 110 ft | 12 kts | 330° |
| 2026-05-01 08:42 | 24.90859 | 67.17422 | 110 ft | 0 kts | 261° |
| 2026-05-01 08:43 | 24.90848 | 67.17363 | 110 ft | 25 kts | 256° |
| 2026-05-01 08:43 | 24.90753 | 67.16949 | 110 ft | 92 kts | 253° |
| 2026-05-01 08:44 | 24.90513 | 67.16029 | 108 ft | 155 kts | 255° |
| 2026-05-01 08:44 | 24.90204 | 67.14755 | 403 ft | 183 kts | 253° |
| 2026-05-01 08:44 | 24.89878 | 67.13439 | 1384 ft | 180 kts | 252° |
| 2026-05-01 08:44 | 24.89143 | 67.12223 | 2378 ft | 210 kts | 230° |
| 2026-05-01 08:45 | 24.87983 | 67.11030 | 2670 ft | 246 kts | 228° |
| 2026-05-01 08:45 | 24.86694 | 67.09665 | 3328 ft | 263 kts | 228° |
| 2026-05-01 08:45 | 24.85386 | 67.08239 | 4339 ft | 265 kts | 229° |
| 2026-05-01 08:45 | 24.84093 | 67.06784 | 5382 ft | 267 kts | 230° |
| 2026-05-01 08:46 | 24.82801 | 67.05296 | 6394 ft | 270 kts | 230° |
| 2026-05-01 08:46 | 24.81500 | 67.03780 | 7400 ft | 274 kts | 230° |
| 2026-05-01 08:46 | 24.80191 | 67.02249 | 8433 ft | 276 kts | 230° |
| 2026-05-01 08:46 | 24.78908 | 67.00677 | 9405 ft | 276 kts | 238° |
| 2026-05-01 08:47 | 24.78185 | 66.98721 | 10132 ft | 283 kts | 261° |
| 2026-05-01 08:47 | 24.78167 | 66.96475 | 10415 ft | 309 kts | 277° |
| 2026-05-01 08:47 | 24.78457 | 66.94019 | 10722 ft | 335 kts | 277° |
| 2026-05-01 08:47 | 24.78763 | 66.91436 | 11489 ft | 345 kts | 277° |
| 2026-05-01 08:48 | 24.79063 | 66.88788 | 12396 ft | 351 kts | 277° |
| 2026-05-01 08:48 | 24.79355 | 66.86105 | 13381 ft | 355 kts | 277° |
| 2026-05-01 08:48 | 24.79640 | 66.83427 | 14274 ft | 358 kts | 277° |
| 2026-05-01 08:48 | 24.80184 | 66.80767 | 14981 ft | 362 kts | 292° |
| 2026-05-01 08:49 | 24.81489 | 66.78373 | 15807 ft | 369 kts | 308° |
| 2026-05-01 08:49 | 24.83285 | 66.76348 | 16561 ft | 373 kts | 314° |
| 2026-05-01 08:49 | 24.85179 | 66.74382 | 16722 ft | 377 kts | 314° |
| 2026-05-01 08:49 | 24.87101 | 66.72409 | 16714 ft | 377 kts | 314° |
| 2026-05-01 08:50 | 24.89010 | 66.70442 | 16688 ft | 375 kts | 314° |
| 2026-05-01 08:50 | 24.90902 | 66.68473 | 16713 ft | 374 kts | 314° |
| 2026-05-01 08:50 | 24.92788 | 66.66493 | 16711 ft | 375 kts | 313° |
| 2026-05-01 08:50 | 24.94670 | 66.64507 | 16708 ft | 375 kts | 313° |
| 2026-05-01 08:51 | 24.96552 | 66.62515 | 16711 ft | 375 kts | 313° |
| 2026-05-01 08:51 | 24.98433 | 66.60522 | 16708 ft | 375 kts | 313° |
| 2026-05-01 08:51 | 25.00314 | 66.58528 | 16706 ft | 375 kts | 313° |
| 2026-05-01 08:51 | 25.02196 | 66.56532 | 16716 ft | 375 kts | 313° |
| 2026-05-01 08:52 | 25.04074 | 66.54541 | 16694 ft | 373 kts | 313° |
| 2026-05-01 08:52 | 25.05690 | 66.52352 | 16697 ft | 366 kts | 298° |
| 2026-05-01 08:52 | 25.06615 | 66.49738 | 17147 ft | 369 kts | 284° |
| 2026-05-01 08:52 | 25.07232 | 66.46970 | 17994 ft | 374 kts | 282° |
| 2026-05-01 08:53 | 25.07838 | 66.44175 | 18845 ft | 376 kts | 282° |
| 2026-05-01 08:53 | 25.08445 | 66.41358 | 19646 ft | 379 kts | 283° |
| 2026-05-01 08:53 | 25.09061 | 66.38511 | 20423 ft | 384 kts | 283° |
| 2026-05-01 08:53 | 25.09690 | 66.35625 | 21201 ft | 389 kts | 283° |
| 2026-05-01 08:54 | 25.10331 | 66.32703 | 21974 ft | 394 kts | 283° |
| 2026-05-01 08:54 | 25.10981 | 66.29750 | 22739 ft | 399 kts | 283° |
| 2026-05-01 08:54 | 25.11641 | 66.26758 | 23446 ft | 404 kts | 284° |
| 2026-05-01 08:54 | 25.12310 | 66.23734 | 24067 ft | 408 kts | 283° |
| 2026-05-01 08:55 | 25.12985 | 66.20677 | 24698 ft | 412 kts | 283° |
| 2026-05-01 08:55 | 25.13665 | 66.17596 | 25335 ft | 415 kts | 283° |
| 2026-05-01 08:55 | 25.14351 | 66.14484 | 25941 ft | 419 kts | 283° |
| 2026-05-01 08:55 | 25.15041 | 66.11348 | 26537 ft | 423 kts | 283° |
| 2026-05-01 08:56 | 25.15738 | 66.08182 | 27121 ft | 426 kts | 283° |
| 2026-05-01 08:56 | 25.16440 | 66.04985 | 27700 ft | 430 kts | 283° |
| 2026-05-01 08:56 | 25.17146 | 66.01770 | 28274 ft | 433 kts | 283° |
| 2026-05-01 08:56 | 25.17856 | 65.98527 | 28813 ft | 436 kts | 283° |
| 2026-05-01 08:57 | 25.18563 | 65.95301 | 29322 ft | 440 kts | 283° |
| 2026-05-01 08:57 | 25.19294 | 65.91958 | 29806 ft | 444 kts | 283° |
| 2026-05-01 08:57 | 25.20012 | 65.88672 | 30190 ft | 448 kts | 283° |
| 2026-05-01 08:57 | 25.20743 | 65.85322 | 30609 ft | 450 kts | 283° |
| 2026-05-01 08:58 | 25.21477 | 65.81954 | 31022 ft | 452 kts | 283° |
| 2026-05-01 08:58 | 25.22214 | 65.78568 | 31412 ft | 455 kts | 283° |
| 2026-05-01 08:58 | 25.22964 | 65.75121 | 31783 ft | 456 kts | 283° |
| 2026-05-01 08:58 | 25.23694 | 65.71759 | 32217 ft | 456 kts | 283° |
| 2026-05-01 08:59 | 25.24432 | 65.68360 | 32724 ft | 454 kts | 283° |
| 2026-05-01 08:59 | 25.25166 | 65.64972 | 33241 ft | 453 kts | 282° |
| 2026-05-01 08:59 | 25.25896 | 65.61598 | 33747 ft | 451 kts | 282° |
| 2026-05-01 08:59 | 25.26626 | 65.58224 | 34090 ft | 452 kts | 282° |
| 2026-05-01 09:00 | 25.27355 | 65.54843 | 34442 ft | 453 kts | 282° |
| 2026-05-01 09:00 | 25.28084 | 65.51462 | 34854 ft | 451 kts | 282° |
| 2026-05-01 09:00 | 25.28809 | 65.48096 | 35288 ft | 449 kts | 282° |
| 2026-05-01 09:00 | 25.29532 | 65.44741 | 35669 ft | 449 kts | 282° |
| 2026-05-01 09:01 | 25.30985 | 65.37973 | 35694 ft | 453 kts | 282° |
| 2026-05-01 09:01 | 25.32426 | 65.31242 | 35690 ft | 447 kts | 282° |
| 2026-05-01 09:02 | 25.33852 | 65.24557 | 35687 ft | 447 kts | 282° |
| 2026-05-01 09:02 | 25.35278 | 65.17866 | 35697 ft | 448 kts | 282° |
| 2026-05-01 09:03 | 25.36700 | 65.11152 | 35686 ft | 449 kts | 282° |
| 2026-05-01 09:03 | 25.38124 | 65.04427 | 35693 ft | 450 kts | 282° |
| 2026-05-01 09:04 | 25.39549 | 64.97689 | 35702 ft | 450 kts | 282° |
| 2026-05-01 09:04 | 25.40969 | 64.90939 | 35697 ft | 450 kts | 281° |
| 2026-05-01 09:05 | 25.41318 | 64.84069 | 35702 ft | 449 kts | 265° |
| 2026-05-01 09:05 | 25.40163 | 64.77303 | 35701 ft | 449 kts | 254° |
| 2026-05-01 09:06 | 25.38289 | 64.70702 | 35700 ft | 450 kts | 253° |
| 2026-05-01 09:06 | 25.36408 | 64.64152 | 35705 ft | 450 kts | 253° |
| 2026-05-01 09:07 | 25.34545 | 64.57548 | 35705 ft | 450 kts | 253° |
| 2026-05-01 09:07 | 25.32698 | 64.50938 | 35706 ft | 450 kts | 254° |
| 2026-05-01 09:08 | 25.30854 | 64.44333 | 35705 ft | 450 kts | 254° |
| 2026-05-01 09:08 | 25.29008 | 64.37730 | 35703 ft | 450 kts | 254° |
| 2026-05-01 09:09 | 25.27158 | 64.31131 | 35705 ft | 449 kts | 253° |
| 2026-05-01 09:09 | 25.25305 | 64.24534 | 35707 ft | 449 kts | 253° |
| 2026-05-01 09:10 | 25.23450 | 64.17946 | 35708 ft | 449 kts | 253° |
| 2026-05-01 09:10 | 25.21592 | 64.11357 | 35708 ft | 449 kts | 253° |
| 2026-05-01 09:11 | 25.19731 | 64.04768 | 35729 ft | 449 kts | 253° |
| 2026-05-01 09:11 | 25.17866 | 63.98180 | 35716 ft | 450 kts | 253° |
| 2026-05-01 09:12 | 25.15998 | 63.91593 | 35712 ft | 450 kts | 253° |
| 2026-05-01 09:12 | 25.14127 | 63.85008 | 35712 ft | 450 kts | 253° |
| 2026-05-01 09:13 | 25.12265 | 63.78469 | 35711 ft | 450 kts | 253° |
| 2026-05-01 09:13 | 25.10390 | 63.71893 | 35725 ft | 449 kts | 253° |
| 2026-05-01 09:14 | 25.08511 | 63.65315 | 35721 ft | 449 kts | 253° |
| 2026-05-01 09:14 | 25.06628 | 63.58740 | 35722 ft | 449 kts | 253° |
| 2026-05-01 09:15 | 25.04745 | 63.52172 | 35723 ft | 449 kts | 253° |
| 2026-05-01 09:15 | 25.02858 | 63.45603 | 35730 ft | 449 kts | 253° |
| 2026-05-01 09:16 | 25.00970 | 63.39044 | 35724 ft | 449 kts | 253° |
| 2026-05-01 09:17 | 24.98135 | 63.29216 | 35731 ft | 448 kts | 253° |
| 2026-05-01 09:17 | 24.95293 | 63.19393 | 35738 ft | 448 kts | 253° |